Terminal Aerodrome Forecast
Issued by NWS

Home | Current Version | Previous Version | Text Only | Print | Product List | Glossary On
Versions: 1 2 3 4 5 6 7 8 9 10 11 12 13 14 15 16 17
000
FTUS42 KILM 211700
TAFCRE
TAF
KCRE 211720Z 2118/2218 33009KT P6SM FEW015 BKN180
     FM212000 23010KT P6SM FEW200
     FM221300 28005KT P6SM FEW020=

USA.gov is the U.S. government's official web portal to all federal, state and local government web resources and services.